createdAt,value
2018-10-07T00:00:26.916Z,84.00
2018-10-07T00:02:19.238Z,72.00
2018-10-07T00:03:19.254Z,76.00
2018-10-07T00:05:12.098Z,92.00
2018-10-07T00:06:11.896Z,96.00
2018-10-07T00:08:03.925Z,124.00
2018-10-07T00:09:03.896Z,132.00
2018-10-07T00:10:56.812Z,128.00
2018-10-07T00:11:56.238Z,136.00
2018-10-07T00:13:49.191Z,168.00
2018-10-07T00:14:48.602Z,176.00
2018-10-07T00:16:41.118Z,208.00
2018-10-07T00:17:40.914Z,216.00
2018-10-07T00:19:33.257Z,192.00
2018-10-07T00:20:33.251Z,204.00
2018-10-07T00:22:26.409Z,200.00
2018-10-07T00:23:25.591Z,208.00
2018-10-07T00:25:17.947Z,216.00
2018-10-07T00:26:17.939Z,232.00
2018-10-07T00:28:10.834Z,200.00
2018-10-07T00:29:10.267Z,144.00
2018-10-07T00:31:02.138Z,76.00
2018-10-07T00:32:02.135Z,72.00
2018-10-07T00:33:55.232Z,88.00
2018-10-07T00:34:54.996Z,92.00
2018-10-07T00:36:47.338Z,112.00
2018-10-07T00:37:47.662Z,116.00
2018-10-07T00:39:40.250Z,116.00
2018-10-07T00:40:39.665Z,124.00
2018-10-07T00:42:32.012Z,124.00
2018-10-07T00:43:32.025Z,108.00
2018-10-07T00:45:24.072Z,92.00
2018-10-07T00:46:23.893Z,84.00
2018-10-07T00:48:16.213Z,96.00
2018-10-07T00:49:16.199Z,120.00
2018-10-07T00:51:09.094Z,104.00
2018-10-07T00:52:08.886Z,88.00
2018-10-07T00:54:00.874Z,104.00
2018-10-07T00:55:01.207Z,108.00
2018-10-07T00:56:53.426Z,104.00
2018-10-07T00:57:53.203Z,96.00
2018-10-07T00:59:45.566Z,104.00
2018-10-07T01:00:45.576Z,104.00
2018-10-07T01:02:38.126Z,104.00
2018-10-07T01:03:38.241Z,104.00
2018-10-07T01:05:30.567Z,116.00
2018-10-07T01:06:30.231Z,120.00
2018-10-07T01:08:22.783Z,100.00
2018-10-07T01:09:22.569Z,92.00
2018-10-07T01:11:14.902Z,108.00
2018-10-07T01:12:14.896Z,140.00
2018-10-07T01:14:08.052Z,112.00
2018-10-07T01:15:07.243Z,108.00
2018-10-07T01:16:59.704Z,104.00
2018-10-07T01:17:59.626Z,92.00
2018-10-07T01:19:52.482Z,88.00
2018-10-07T01:20:51.928Z,88.00
2018-10-07T01:22:44.283Z,96.00
2018-10-07T01:23:44.274Z,108.00
2018-10-07T01:25:36.829Z,124.00
2018-10-07T01:26:36.610Z,136.00
2018-10-07T01:28:28.828Z,184.00
2018-10-07T01:29:28.467Z,188.00
2018-10-07T01:31:21.367Z,144.00
2018-10-07T01:32:20.807Z,168.00
2018-10-07T01:34:13.483Z,144.00
2018-10-07T01:35:13.141Z,152.00
2018-10-07T01:37:05.827Z,152.00
2018-10-07T01:38:05.469Z,160.00
2018-10-07T01:39:57.819Z,160.00
2018-10-07T01:40:57.809Z,200.00
2018-10-07T01:42:50.742Z,292.00
2018-10-07T01:43:50.174Z,324.00
2018-10-07T01:45:43.110Z,272.00
2018-10-07T01:46:42.528Z,216.00
2018-10-07T01:48:35.406Z,188.00
2018-10-07T01:49:34.879Z,200.00
2018-10-07T01:51:27.220Z,216.00
2018-10-07T01:52:27.220Z,224.00
2018-10-07T01:54:20.088Z,236.00
2018-10-07T01:55:19.533Z,236.00
2018-10-07T01:57:11.893Z,224.00
2018-10-07T01:58:12.214Z,212.00
2018-10-07T02:00:05.047Z,236.00
2018-10-07T02:01:04.268Z,252.00
2018-10-07T02:02:56.575Z,268.00
2018-10-07T02:03:56.577Z,284.00
2018-10-07T02:05:49.502Z,272.00
2018-10-07T02:06:48.905Z,276.00
2018-10-07T02:08:41.597Z,292.00
2018-10-07T02:09:41.586Z,280.00
2018-10-07T02:11:34.384Z,296.00
2018-10-07T02:12:33.585Z,292.00
2018-10-07T02:14:25.948Z,284.00
2018-10-07T02:15:25.938Z,304.00
2018-10-07T02:17:19.087Z,280.00
2018-10-07T02:18:18.280Z,244.00
2018-10-07T02:20:10.727Z,240.00
2018-10-07T02:21:10.627Z,236.00
2018-10-07T02:23:03.171Z,240.00
2018-10-07T02:24:02.960Z,244.00
2018-10-07T02:25:55.319Z,216.00
2018-10-07T02:26:55.650Z,216.00
2018-10-07T02:28:47.886Z,232.00
2018-10-07T02:29:47.671Z,252.00
2018-10-07T02:31:40.578Z,268.00
2018-10-07T02:32:39.988Z,284.00
2018-10-07T02:34:33.063Z,264.00
2018-10-07T02:35:32.855Z,244.00
2018-10-07T02:37:25.206Z,248.00
2018-10-07T02:38:25.203Z,224.00
2018-10-07T02:40:17.765Z,204.00
2018-10-07T02:41:17.529Z,220.00
2018-10-07T02:43:10.223Z,188.00
2018-10-07T02:44:09.884Z,192.00
2018-10-07T02:46:03.027Z,192.00
2018-10-07T02:47:02.228Z,184.00
2018-10-07T02:48:54.651Z,180.00
2018-10-07T02:49:54.911Z,180.00
2018-10-07T02:51:48.019Z,144.00
2018-10-07T02:52:46.926Z,144.00
2018-10-07T02:54:39.596Z,164.00
2018-10-07T02:55:39.264Z,164.00
2018-10-07T02:57:31.797Z,168.00
2018-10-07T02:58:31.567Z,172.00
2018-10-07T03:00:23.913Z,192.00
2018-10-07T03:01:23.900Z,188.00
2018-10-07T03:03:16.424Z,216.00
2018-10-07T03:04:15.791Z,216.00
2018-10-07T03:06:09.038Z,252.00
2018-10-07T03:07:08.450Z,248.00
2018-10-07T03:09:01.243Z,268.00
2018-10-07T03:10:00.796Z,272.00
2018-10-07T03:11:52.788Z,272.00
2018-10-07T03:12:52.779Z,324.00
2018-10-07T03:14:45.327Z,492.00
2018-10-07T03:15:45.129Z,384.00
2018-10-07T03:17:37.480Z,260.00
2018-10-07T03:18:37.806Z,284.00
2018-10-07T03:20:30.048Z,256.00
2018-10-07T03:21:30.190Z,284.00
2018-10-07T03:23:22.168Z,280.00
2018-10-07T03:24:22.156Z,268.00
2018-10-07T03:26:14.731Z,260.00
2018-10-07T03:27:14.855Z,288.00
2018-10-07T03:29:07.176Z,300.00
2018-10-07T03:30:06.836Z,292.00
2018-10-07T03:31:59.504Z,248.00
2018-10-07T03:32:59.202Z,244.00
2018-10-07T03:34:51.877Z,256.00
2018-10-07T03:35:51.528Z,220.00
2018-10-07T03:37:44.092Z,280.00
2018-10-07T03:38:43.863Z,284.00
2018-10-07T03:40:36.216Z,504.00
2018-10-07T03:41:36.209Z,344.00
2018-10-07T03:43:28.751Z,304.00
2018-10-07T03:44:28.558Z,276.00
2018-10-07T03:46:20.896Z,232.00
2018-10-07T03:47:20.899Z,248.00
2018-10-07T03:49:13.552Z,292.00
2018-10-07T03:50:13.235Z,340.00
2018-10-07T03:52:05.577Z,252.00
2018-10-07T03:53:05.905Z,204.00
2018-10-07T03:54:58.452Z,224.00
2018-10-07T03:55:57.926Z,284.00
2018-10-07T03:57:50.266Z,288.00
2018-10-07T03:58:50.255Z,292.00
2018-10-07T04:00:42.798Z,320.00
2018-10-07T04:01:42.605Z,364.00
2018-10-07T04:03:35.361Z,320.00
2018-10-07T04:04:34.934Z,332.00
2018-10-07T04:06:27.479Z,276.00
2018-10-07T04:07:27.602Z,220.00
2018-10-07T04:09:19.620Z,240.00
2018-10-07T04:10:19.633Z,256.00
2018-10-07T04:12:12.178Z,308.00
2018-10-07T04:13:11.980Z,296.00
2018-10-07T04:15:04.940Z,316.00
2018-10-07T04:16:04.295Z,332.00
2018-10-07T04:17:56.873Z,296.00
2018-10-07T04:18:56.642Z,288.00
2018-10-07T04:20:49.336Z,292.00
2018-10-07T04:21:49.313Z,272.00
2018-10-07T04:23:41.517Z,292.00
2018-10-07T04:24:41.373Z,304.00
2018-10-07T04:26:34.284Z,244.00
2018-10-07T04:27:33.665Z,228.00
2018-10-07T04:29:30.551Z,252.00
2018-10-07T04:30:26.339Z,252.00
2018-10-07T04:32:18.348Z,300.00
2018-10-07T04:33:18.342Z,292.00
2018-10-07T04:35:11.287Z,340.00
2018-10-07T04:36:10.732Z,376.00
2018-10-07T04:38:03.081Z,304.00
2018-10-07T04:39:03.057Z,212.00
2018-10-07T04:40:55.636Z,152.00
2018-10-07T04:41:55.410Z,136.00
2018-10-07T04:43:48.085Z,156.00
2018-10-07T04:44:47.749Z,152.00
2018-10-07T04:46:40.280Z,180.00
2018-10-07T04:47:40.076Z,164.00
2018-10-07T04:49:32.768Z,152.00
2018-10-07T04:50:32.421Z,164.00
2018-10-07T04:52:24.961Z,132.00
2018-10-07T04:53:24.762Z,168.00
2018-10-07T04:55:17.118Z,268.00
2018-10-07T04:56:17.109Z,280.00
2018-10-07T04:58:09.668Z,252.00
2018-10-07T04:59:09.460Z,244.00
2018-10-07T05:01:01.797Z,208.00
2018-10-07T05:02:01.790Z,236.00
2018-10-07T05:03:53.866Z,244.00
2018-10-07T05:04:53.657Z,244.00
2018-10-07T05:06:46.001Z,256.00
2018-10-07T05:07:45.984Z,232.00
2018-10-07T05:09:42.667Z,236.00
2018-10-07T05:10:38.677Z,248.00
2018-10-07T05:12:30.737Z,256.00
2018-10-07T05:13:30.668Z,244.00
2018-10-07T05:15:24.120Z,260.00
2018-10-07T05:16:22.996Z,264.00
2018-10-07T05:18:15.938Z,256.00
2018-10-07T05:19:15.356Z,252.00
2018-10-07T05:21:08.250Z,220.00
2018-10-07T05:22:08.007Z,240.00
2018-10-07T05:24:00.023Z,236.00
2018-10-07T05:25:00.014Z,208.00
2018-10-07T05:26:53.562Z,188.00
2018-10-07T05:27:52.694Z,196.00
2018-10-07T05:29:44.712Z,188.00
2018-10-07T05:30:44.704Z,180.00
2018-10-07T05:32:37.285Z,148.00
2018-10-07T05:33:37.128Z,160.00
2018-10-07T05:35:29.392Z,192.00
2018-10-07T05:36:29.716Z,240.00
2018-10-07T05:38:21.962Z,300.00
2018-10-07T05:39:21.749Z,300.00
2018-10-07T05:41:13.941Z,296.00
2018-10-07T05:42:13.916Z,296.00
2018-10-07T05:44:06.239Z,296.00
2018-10-07T05:45:06.246Z,252.00
2018-10-07T05:46:58.262Z,220.00
2018-10-07T05:47:58.253Z,212.00
2018-10-07T05:49:50.813Z,176.00
2018-10-07T05:50:50.590Z,200.00
2018-10-07T05:52:42.950Z,156.00
2018-10-07T05:53:42.944Z,144.00
2018-10-07T05:55:35.507Z,124.00
2018-10-07T05:56:35.281Z,144.00
2018-10-07T05:58:27.953Z,208.00
2018-10-07T05:59:27.619Z,236.00
2018-10-07T06:01:20.195Z,256.00
2018-10-07T06:02:20.086Z,244.00
2018-10-07T06:04:12.315Z,272.00
2018-10-07T06:05:12.302Z,288.00
2018-10-07T06:07:08.499Z,288.00
2018-10-07T06:08:04.991Z,284.00
2018-10-07T06:09:57.340Z,268.00
2018-10-07T06:10:57.331Z,244.00
2018-10-07T06:12:49.562Z,256.00
2018-10-07T06:13:49.321Z,260.00
2018-10-07T06:15:41.670Z,272.00
2018-10-07T06:16:41.668Z,272.00
2018-10-07T06:18:34.244Z,252.00
2018-10-07T06:19:34.005Z,228.00
2018-10-07T06:21:26.417Z,224.00
2018-10-07T06:22:26.339Z,232.00
2018-10-07T06:24:18.996Z,236.00
2018-10-07T06:25:18.683Z,212.00
2018-10-07T06:27:11.061Z,196.00
2018-10-07T06:28:11.019Z,200.00
2018-10-07T06:30:03.553Z,212.00
2018-10-07T06:31:03.374Z,224.00
2018-10-07T06:32:55.705Z,256.00
2018-10-07T06:33:55.693Z,268.00
2018-10-07T06:35:48.310Z,256.00
2018-10-07T06:36:48.097Z,232.00
2018-10-07T06:38:40.527Z,252.00
2018-10-07T06:39:40.425Z,276.00
2018-10-07T06:41:32.952Z,292.00
2018-10-07T06:42:32.752Z,292.00
2018-10-07T06:44:25.107Z,280.00
2018-10-07T06:45:25.443Z,272.00
2018-10-07T06:47:18.283Z,312.00
2018-10-07T06:48:17.431Z,320.00
2018-10-07T06:50:09.815Z,316.00
2018-10-07T06:51:09.778Z,300.00
2018-10-07T06:53:02.332Z,316.00
2018-10-07T06:54:02.120Z,328.00
2018-10-07T06:55:54.309Z,332.00
2018-10-07T06:56:54.306Z,332.00
2018-10-07T06:58:46.896Z,336.00
2018-10-07T06:59:46.391Z,340.00
2018-10-07T07:01:38.654Z,344.00
2018-10-07T07:02:38.662Z,340.00
2018-10-07T07:04:31.772Z,304.00
2018-10-07T07:05:31.333Z,320.00
2018-10-07T07:07:23.664Z,328.00
2018-10-07T07:08:23.314Z,328.00
2018-10-07T07:10:16.236Z,348.00
2018-10-07T07:11:16.024Z,352.00
2018-10-07T07:13:08.093Z,344.00
2018-10-07T07:14:08.003Z,348.00
2018-10-07T07:16:00.559Z,340.00
2018-10-07T07:17:00.344Z,344.00
2018-10-07T07:18:52.689Z,336.00
2018-10-07T07:19:53.143Z,332.00
2018-10-07T07:21:45.581Z,328.00
2018-10-07T07:22:45.367Z,324.00
2018-10-07T07:24:37.467Z,312.00
2018-10-07T07:25:36.917Z,304.00
2018-10-07T07:27:29.432Z,300.00
2018-10-07T07:28:29.234Z,272.00
2018-10-07T07:30:21.916Z,264.00
2018-10-07T07:31:21.601Z,284.00
2018-10-07T07:33:14.095Z,248.00
2018-10-07T07:34:13.920Z,224.00
2018-10-07T07:36:06.243Z,248.00
2018-10-07T07:37:06.228Z,244.00
2018-10-07T07:38:58.786Z,232.00
2018-10-07T07:39:58.598Z,240.00
2018-10-07T07:41:50.919Z,244.00
2018-10-07T07:42:51.241Z,248.00
2018-10-07T07:44:43.443Z,176.00
2018-10-07T07:45:43.273Z,180.00
2018-10-07T07:47:35.613Z,224.00
2018-10-07T07:48:35.580Z,208.00
2018-10-07T07:50:28.489Z,196.00
2018-10-07T07:51:27.921Z,188.00
2018-10-07T07:53:20.602Z,184.00
2018-10-07T07:54:20.600Z,172.00
2018-10-07T07:56:12.394Z,156.00
2018-10-07T07:57:12.129Z,136.00
2018-10-07T07:59:04.480Z,120.00
2018-10-07T08:00:04.804Z,120.00
2018-10-07T08:01:57.013Z,128.00
2018-10-07T08:02:56.810Z,112.00
2018-10-07T08:04:49.152Z,112.00
2018-10-07T08:05:49.492Z,112.00
2018-10-07T08:07:41.717Z,112.00
2018-10-07T08:08:41.498Z,112.00
2018-10-07T08:10:33.836Z,100.00
2018-10-07T08:11:33.827Z,96.00
2018-10-07T08:13:26.702Z,104.00
2018-10-07T08:14:26.163Z,92.00
2018-10-07T08:16:18.525Z,104.00
2018-10-07T08:17:18.529Z,104.00
2018-10-07T08:19:11.388Z,92.00
2018-10-07T08:20:10.839Z,88.00
2018-10-07T08:22:03.539Z,80.00
2018-10-07T08:23:03.198Z,76.00
2018-10-07T08:24:55.860Z,72.00
2018-10-07T08:25:55.529Z,76.00
2018-10-07T08:27:48.822Z,92.00
2018-10-07T08:28:48.215Z,104.00
2018-10-07T08:30:40.436Z,120.00
2018-10-07T08:31:40.200Z,124.00
2018-10-07T08:33:32.541Z,116.00
2018-10-07T08:34:32.532Z,112.00
2018-10-07T08:36:25.666Z,116.00
2018-10-07T08:37:25.750Z,120.00
2018-10-07T08:39:17.759Z,128.00
2018-10-07T08:40:17.762Z,132.00
2018-10-07T08:42:10.322Z,124.00
2018-10-07T08:43:10.102Z,104.00
2018-10-07T08:45:02.444Z,92.00
2018-10-07T08:46:02.436Z,96.00
2018-10-07T08:47:55.356Z,112.00
2018-10-07T08:48:55.116Z,120.00
2018-10-07T08:50:47.137Z,132.00
2018-10-07T08:51:47.124Z,124.00
2018-10-07T08:53:39.774Z,116.00
2018-10-07T08:54:39.485Z,108.00
2018-10-07T08:56:31.853Z,92.00
2018-10-07T08:57:32.139Z,88.00
2018-10-07T08:59:27.938Z,80.00
2018-10-07T09:00:24.511Z,68.00
2018-10-07T09:02:16.511Z,72.00
2018-10-07T09:03:16.506Z,80.00
2018-10-07T09:05:09.379Z,88.00
2018-10-07T09:06:09.172Z,88.00
2018-10-07T09:08:01.179Z,72.00
2018-10-07T09:09:01.256Z,64.00
2018-10-07T09:10:54.083Z,56.00
2018-10-07T09:11:53.517Z,52.00
2018-10-07T09:13:46.454Z,56.00
2018-10-07T09:14:46.274Z,52.00
2018-10-07T09:16:38.752Z,44.00
2018-10-07T09:17:38.204Z,48.00
2018-10-07T09:19:30.641Z,36.00
2018-10-07T09:20:30.543Z,36.00
2018-10-07T09:22:23.454Z,36.00
2018-10-07T09:23:22.911Z,32.00
2018-10-07T09:25:15.251Z,24.00
2018-10-07T09:26:15.570Z,20.00
2018-10-07T09:28:08.408Z,16.00
2018-10-07T09:29:07.914Z,16.00
2018-10-07T09:30:59.938Z,20.00
2018-10-07T09:31:59.915Z,24.00
2018-10-07T09:33:52.514Z,20.00
2018-10-07T09:34:52.253Z,24.00
2018-10-07T09:36:44.657Z,20.00
2018-10-07T09:37:44.941Z,16.00
2018-10-07T09:39:37.215Z,20.00
2018-10-07T09:40:36.942Z,20.00
2018-10-07T09:42:29.302Z,24.00
2018-10-07T09:43:29.281Z,24.00
2018-10-07T09:45:22.776Z,32.00
2018-10-07T09:46:21.618Z,40.00
2018-10-07T09:48:13.986Z,36.00
2018-10-07T09:49:13.981Z,36.00
2018-10-07T09:51:09.768Z,32.00
2018-10-07T09:52:06.667Z,32.00
2018-10-07T09:53:58.667Z,24.00
2018-10-07T09:54:58.647Z,24.00
2018-10-07T09:56:51.233Z,28.00
2018-10-07T09:57:51.371Z,20.00
2018-10-07T09:59:43.342Z,20.00
2018-10-07T10:00:43.343Z,20.00
2018-10-07T10:02:39.578Z,16.00
2018-10-07T10:03:35.682Z,12.00
2018-10-07T10:05:28.042Z,8.00
2018-10-07T10:06:28.031Z,8.00
2018-10-07T10:08:20.574Z,12.00
2018-10-07T10:09:20.708Z,8.00
2018-10-07T10:11:13.219Z,4.00
2018-10-07T10:12:12.706Z,4.00
2018-10-07T10:14:05.288Z,4.00
2018-10-07T10:15:05.053Z,4.00
2018-10-07T10:16:57.406Z,4.00
2018-10-07T10:17:57.392Z,0.00
2018-10-07T10:19:50.263Z,0.00
2018-10-07T10:20:49.743Z,4.00
2018-10-07T10:22:43.030Z,0.00
2018-10-07T10:23:42.081Z,0.00
2018-10-07T10:25:38.147Z,0.00
2018-10-07T10:26:34.413Z,0.00
2018-10-07T10:28:27.130Z,0.00
2018-10-07T10:29:26.750Z,0.00
2018-10-07T10:31:19.659Z,0.00
2018-10-07T10:32:19.082Z,0.00
2018-10-07T10:34:11.434Z,0.00
2018-10-07T10:35:11.430Z,0.00
2018-10-07T10:37:04.541Z,0.00
2018-10-07T10:38:04.631Z,0.00
2018-10-07T10:39:57.018Z,0.00
2018-10-07T10:40:56.628Z,0.00
2018-10-07T10:42:49.211Z,0.00
2018-10-07T10:43:48.977Z,0.00
2018-10-07T10:45:41.658Z,0.00
2018-10-07T10:46:41.310Z,0.00
2018-10-07T10:48:33.387Z,0.00
2018-10-07T10:49:33.190Z,0.00
2018-10-07T10:51:25.539Z,0.00
2018-10-07T10:52:25.876Z,0.00
2018-10-07T10:54:18.672Z,0.00
2018-10-07T10:55:18.259Z,0.00
2018-10-07T10:57:10.792Z,0.00
2018-10-07T10:58:10.189Z,0.00
2018-10-07T11:00:02.726Z,0.00
2018-10-07T11:01:02.553Z,0.00
2018-10-07T11:02:54.875Z,0.00
2018-10-07T11:03:54.866Z,0.00
2018-10-07T11:05:47.435Z,0.00
2018-10-07T11:06:47.204Z,0.00
2018-10-07T11:08:39.563Z,0.00
2018-10-07T11:09:39.540Z,0.00
2018-10-07T11:11:32.692Z,0.00
2018-10-07T11:12:31.873Z,0.00
2018-10-07T11:14:23.745Z,0.00
2018-10-07T11:15:23.750Z,0.00
2018-10-07T11:17:16.274Z,0.00
2018-10-07T11:18:16.066Z,0.00
2018-10-07T11:20:08.414Z,0.00
2018-10-07T11:21:08.421Z,0.00
2018-10-07T11:23:01.094Z,0.00
2018-10-07T11:24:00.744Z,0.00
2018-10-07T11:25:53.098Z,0.00
2018-10-07T11:26:53.100Z,0.00
2018-10-07T11:28:49.040Z,0.00
2018-10-07T11:29:45.449Z,0.00
2018-10-07T11:31:37.792Z,0.00
2018-10-07T11:32:37.772Z,0.00
2018-10-07T11:34:30.672Z,0.00
2018-10-07T11:35:30.122Z,0.00
2018-10-07T11:37:22.496Z,0.00
2018-10-07T11:38:22.484Z,0.00
2018-10-07T11:40:15.132Z,0.00
2018-10-07T11:41:14.829Z,0.00
2018-10-07T11:43:07.740Z,0.00
2018-10-07T11:44:07.155Z,0.00
2018-10-07T11:46:00.066Z,0.00
2018-10-07T11:46:59.526Z,0.00
2018-10-07T11:48:51.842Z,0.00
2018-10-07T11:49:51.835Z,0.00
2018-10-07T11:51:44.393Z,0.00
2018-10-07T11:52:44.267Z,0.00
2018-10-07T11:54:36.530Z,0.00
2018-10-07T11:55:36.853Z,0.00
2018-10-07T11:57:29.064Z,0.00
2018-10-07T11:58:28.857Z,0.00
2018-10-07T12:00:21.205Z,0.00
2018-10-07T12:01:21.232Z,0.00
2018-10-07T12:03:13.752Z,0.00
2018-10-07T12:04:13.547Z,0.00
2018-10-07T12:06:05.911Z,0.00
2018-10-07T12:07:06.235Z,0.00
2018-10-07T12:08:58.435Z,0.00
2018-10-07T12:09:58.216Z,0.00
2018-10-07T12:11:50.568Z,0.00
2018-10-07T12:12:50.560Z,0.00
2018-10-07T12:14:43.132Z,0.00
2018-10-07T12:15:42.890Z,0.00
2018-10-07T12:17:35.268Z,0.00
2018-10-07T12:18:35.240Z,0.00
2018-10-07T12:20:31.121Z,0.00
2018-10-07T12:21:27.928Z,0.00
2018-10-07T12:23:20.266Z,0.00
2018-10-07T12:24:20.259Z,0.00
2018-10-07T12:26:13.060Z,0.00
2018-10-07T12:27:12.619Z,0.00
2018-10-07T12:29:04.674Z,0.00
2018-10-07T12:30:04.595Z,0.00
2018-10-07T12:32:01.393Z,0.00
2018-10-07T12:32:57.280Z,0.00
2018-10-07T12:34:49.290Z,0.00
2018-10-07T12:35:49.279Z,0.00
2018-10-07T12:37:46.502Z,0.00
2018-10-07T12:38:42.495Z,0.00
2018-10-07T12:40:34.845Z,0.00
2018-10-07T12:41:34.498Z,0.00
2018-10-07T12:43:27.073Z,0.00
2018-10-07T12:44:26.833Z,0.00
2018-10-07T12:46:19.182Z,0.00
2018-10-07T12:47:19.520Z,0.00
2018-10-07T12:49:11.707Z,0.00
2018-10-07T12:50:11.519Z,0.00
2018-10-07T12:52:04.197Z,0.00
2018-10-07T12:53:03.859Z,0.00
2018-10-07T12:54:56.761Z,0.00
2018-10-07T12:55:56.195Z,0.00
2018-10-07T12:57:48.558Z,0.00
2018-10-07T12:58:48.535Z,0.00
2018-10-07T13:00:41.185Z,0.00
2018-10-07T13:01:41.214Z,0.00
2018-10-07T13:03:33.233Z,0.00
2018-10-07T13:04:33.222Z,0.00
2018-10-07T13:06:26.129Z,0.00
2018-10-07T13:07:25.571Z,0.00
2018-10-07T13:09:17.945Z,0.00
2018-10-07T13:10:17.908Z,0.00
2018-10-07T13:12:10.456Z,0.00
2018-10-07T13:13:10.269Z,0.00
2018-10-07T13:15:02.602Z,0.00
2018-10-07T13:16:02.581Z,0.00
2018-10-07T13:17:55.174Z,0.00
2018-10-07T13:18:54.941Z,0.00
2018-10-07T13:20:47.726Z,0.00
2018-10-07T13:21:46.800Z,0.00
2018-10-07T13:23:39.357Z,0.00
2018-10-07T13:24:39.141Z,0.00
2018-10-07T13:26:31.479Z,0.00
2018-10-07T13:27:31.493Z,0.00
2018-10-07T13:29:24.072Z,0.00
2018-10-07T13:30:24.148Z,0.00
2018-10-07T13:32:16.165Z,0.00
2018-10-07T13:33:16.159Z,0.00
2018-10-07T13:35:08.733Z,0.00
2018-10-07T13:36:08.494Z,0.00
2018-10-07T13:38:00.845Z,0.00
2018-10-07T13:39:00.848Z,0.00
2018-10-07T13:40:53.994Z,0.00
2018-10-07T13:41:53.181Z,0.00
2018-10-07T13:43:45.525Z,0.00
2018-10-07T13:44:45.519Z,0.00
2018-10-07T13:46:38.066Z,0.00
2018-10-07T13:47:37.867Z,0.00
2018-10-07T13:49:30.222Z,0.00
2018-10-07T13:50:30.222Z,0.00
2018-10-07T13:52:23.109Z,0.00
2018-10-07T13:53:22.892Z,0.00
2018-10-07T13:55:14.909Z,0.00
2018-10-07T13:56:14.898Z,0.00
2018-10-07T13:58:07.781Z,0.00
2018-10-07T13:59:07.570Z,0.00
2018-10-07T14:00:59.589Z,0.00
2018-10-07T14:01:59.574Z,0.00
2018-10-07T14:03:52.174Z,0.00
2018-10-07T14:04:51.909Z,0.00
2018-10-07T14:06:44.265Z,0.00
2018-10-07T14:07:44.600Z,0.00
2018-10-07T14:09:36.762Z,0.00
2018-10-07T14:10:36.919Z,0.00
2018-10-07T14:12:29.293Z,0.00
2018-10-07T14:13:28.950Z,0.00
2018-10-07T14:15:22.419Z,0.00
2018-10-07T14:16:21.282Z,0.00
2018-10-07T14:18:13.986Z,0.00
2018-10-07T14:19:13.640Z,0.00
2018-10-07T14:21:06.191Z,0.00
2018-10-07T14:22:06.332Z,0.00
2018-10-07T14:23:58.410Z,0.00
2018-10-07T14:24:58.644Z,0.00
2018-10-07T14:26:51.818Z,0.00
2018-10-07T14:27:50.995Z,0.00
2018-10-07T14:29:43.360Z,0.00
2018-10-07T14:30:42.998Z,0.00
2018-10-07T14:32:35.567Z,0.00
2018-10-07T14:33:35.347Z,0.00
2018-10-07T14:35:27.696Z,0.00
2018-10-07T14:36:27.686Z,0.00
2018-10-07T14:38:25.251Z,0.00
2018-10-07T14:39:20.630Z,0.00
2018-10-07T14:41:12.927Z,0.00
2018-10-07T14:42:12.884Z,0.00
2018-10-07T14:44:06.049Z,0.00
2018-10-07T14:45:05.253Z,0.00
2018-10-07T14:46:57.443Z,0.00
2018-10-07T14:47:57.082Z,0.00
2018-10-07T14:49:49.636Z,0.00
2018-10-07T14:50:49.751Z,0.00
2018-10-07T14:52:41.789Z,0.00
2018-10-07T14:53:41.746Z,0.00
2018-10-07T14:55:34.300Z,0.00
2018-10-07T14:56:34.083Z,0.00
2018-10-07T14:58:27.027Z,0.00
2018-10-07T14:59:26.440Z,0.00
2018-10-07T15:01:19.051Z,0.00
2018-10-07T15:02:18.770Z,0.00
2018-10-07T15:04:11.468Z,0.00
2018-10-07T15:05:11.450Z,0.00
2018-10-07T15:07:03.665Z,0.00
2018-10-07T15:08:03.806Z,0.00
2018-10-07T15:09:55.808Z,0.00
2018-10-07T15:10:55.814Z,0.00
2018-10-07T15:12:48.692Z,0.00
2018-10-07T15:13:48.131Z,0.00
2018-10-07T15:15:40.590Z,0.00
2018-10-07T15:16:40.467Z,0.00
2018-10-07T15:18:33.031Z,0.00
2018-10-07T15:19:32.810Z,0.00
2018-10-07T15:21:25.147Z,0.00
2018-10-07T15:22:25.487Z,0.00
2018-10-07T15:24:17.746Z,0.00
2018-10-07T15:25:17.511Z,0.00
2018-10-07T15:27:09.862Z,0.00
2018-10-07T15:28:10.179Z,0.00
2018-10-07T15:30:03.340Z,0.00
2018-10-07T15:31:02.184Z,0.00
2018-10-07T15:32:54.894Z,0.00
2018-10-07T15:33:54.528Z,0.00
2018-10-07T15:35:47.221Z,0.00
2018-10-07T15:36:46.914Z,0.00
2018-10-07T15:38:39.226Z,0.00
2018-10-07T15:39:39.253Z,0.00
2018-10-07T15:41:31.776Z,0.00
2018-10-07T15:42:31.550Z,0.00
2018-10-07T15:44:23.904Z,0.00
2018-10-07T15:45:24.247Z,0.00
2018-10-07T15:47:16.476Z,0.00
2018-10-07T15:48:16.250Z,0.00
2018-10-07T15:50:08.676Z,0.00
2018-10-07T15:51:08.936Z,0.00
2018-10-07T15:53:00.706Z,0.00
2018-10-07T15:54:00.484Z,0.00
2018-10-07T15:55:52.808Z,0.00
2018-10-07T15:56:52.790Z,0.00
2018-10-07T15:58:45.319Z,0.00
2018-10-07T15:59:45.126Z,0.00
2018-10-07T16:01:37.477Z,0.00
2018-10-07T16:02:37.798Z,0.00
2018-10-07T16:04:29.995Z,0.00
2018-10-07T16:05:30.133Z,0.00
2018-10-07T16:07:22.137Z,0.00
2018-10-07T16:08:22.130Z,0.00
2018-10-07T16:10:14.719Z,0.00
2018-10-07T16:11:14.473Z,0.00
2018-10-07T16:13:06.823Z,0.00
2018-10-07T16:14:07.142Z,0.00
2018-10-07T16:15:59.362Z,0.00
2018-10-07T16:16:59.154Z,0.00
2018-10-07T16:18:51.501Z,0.00
2018-10-07T16:19:51.514Z,0.00
2018-10-07T16:21:44.053Z,0.00
2018-10-07T16:22:43.839Z,0.00
2018-10-07T16:24:36.200Z,0.00
2018-10-07T16:25:36.180Z,0.00
2018-10-07T16:27:28.779Z,0.00
2018-10-07T16:28:28.537Z,0.00
2018-10-07T16:30:21.205Z,0.00
2018-10-07T16:31:20.869Z,0.00
2018-10-07T16:33:13.434Z,0.00
2018-10-07T16:34:13.210Z,0.00
2018-10-07T16:36:05.558Z,0.00
2018-10-07T16:37:05.550Z,0.00
2018-10-07T16:38:59.098Z,0.00
2018-10-07T16:39:58.412Z,0.00
2018-10-07T16:41:50.751Z,0.00
2018-10-07T16:42:50.769Z,0.00
2018-10-07T16:44:43.309Z,0.00
2018-10-07T16:45:43.084Z,0.00
2018-10-07T16:47:35.443Z,0.00
2018-10-07T16:48:35.782Z,0.00
2018-10-07T16:50:28.008Z,0.00
2018-10-07T16:51:27.762Z,0.00
2018-10-07T16:53:20.460Z,0.00
2018-10-07T16:54:20.469Z,0.00
2018-10-07T16:56:12.689Z,0.00
2018-10-07T16:57:12.462Z,0.00
2018-10-07T16:59:04.795Z,0.00
2018-10-07T17:00:05.143Z,0.00
2018-10-07T17:01:57.413Z,0.00
2018-10-07T17:02:57.124Z,0.00
2018-10-07T17:04:49.466Z,0.00
2018-10-07T17:05:49.460Z,0.00
2018-10-07T17:07:42.038Z,0.00
2018-10-07T17:08:41.821Z,0.00
2018-10-07T17:10:33.678Z,0.00
2018-10-07T17:11:33.661Z,0.00
2018-10-07T17:13:26.237Z,0.00
2018-10-07T17:14:25.998Z,0.00
2018-10-07T17:16:18.349Z,0.00
2018-10-07T17:17:18.335Z,0.00
2018-10-07T17:19:11.234Z,0.00
2018-10-07T17:20:10.672Z,0.00
2018-10-07T17:22:03.623Z,0.00
2018-10-07T17:23:02.999Z,0.00
2018-10-07T17:24:55.553Z,0.00
2018-10-07T17:25:55.338Z,0.00
2018-10-07T17:27:47.214Z,0.00
2018-10-07T17:28:47.199Z,0.00
2018-10-07T17:30:40.349Z,0.00
2018-10-07T17:31:39.888Z,0.00
2018-10-07T17:33:31.875Z,0.00
2018-10-07T17:34:31.913Z,0.00
2018-10-07T17:36:24.420Z,0.00
2018-10-07T17:37:24.232Z,0.00
2018-10-07T17:39:16.577Z,0.00
2018-10-07T17:40:16.598Z,0.00
2018-10-07T17:42:09.104Z,0.00
2018-10-07T17:43:09.260Z,0.00
2018-10-07T17:45:01.253Z,0.00
2018-10-07T17:46:01.584Z,0.00
2018-10-07T17:47:54.171Z,0.00
2018-10-07T17:48:53.709Z,0.00
2018-10-07T17:50:46.526Z,0.00
2018-10-07T17:51:45.965Z,0.00
2018-10-07T17:53:38.811Z,0.00
2018-10-07T17:54:38.284Z,0.00
2018-10-07T17:56:31.209Z,0.00
2018-10-07T17:57:30.618Z,0.00
2018-10-07T17:59:22.732Z,0.00
2018-10-07T18:00:22.814Z,0.00
2018-10-07T18:02:15.415Z,0.00
2018-10-07T18:03:15.222Z,0.00
2018-10-07T18:05:06.891Z,0.00
2018-10-07T18:06:06.666Z,0.00
2018-10-07T18:07:59.362Z,0.00
2018-10-07T18:08:59.060Z,0.00
2018-10-07T18:10:51.503Z,0.00
2018-10-07T18:11:51.334Z,0.00
2018-10-07T18:13:44.035Z,0.00
2018-10-07T18:14:44.001Z,0.00
2018-10-07T18:16:36.304Z,0.00
2018-10-07T18:17:36.009Z,0.00
2018-10-07T18:19:28.368Z,0.00
2018-10-07T18:20:28.714Z,0.00
2018-10-07T18:22:21.494Z,0.00
2018-10-07T18:23:20.689Z,0.00
2018-10-07T18:25:13.034Z,0.00
2018-10-07T18:26:13.021Z,0.00
2018-10-07T18:28:05.584Z,0.00
2018-10-07T18:29:05.352Z,0.00